sensor_id;sensor_type;location;lat;lon;timestamp;pressure;altitude;pressure_sealevel;temperature;humidity
14689;BME280;7432;48.728;9.154;2023-03-04T00:01:42;97049.22;;;0.89;86.62
14689;BME280;7432;48.728;9.154;2023-03-04T00:04:09;97049.44;;;0.85;86.43
14689;BME280;7432;48.728;9.154;2023-03-04T00:06:35;97046.69;;;0.89;86.92
14689;BME280;7432;48.728;9.154;2023-03-04T00:09:02;97059.53;;;0.86;87.17
14689;BME280;7432;48.728;9.154;2023-03-04T00:11:29;97062.88;;;0.87;87.14
14689;BME280;7432;48.728;9.154;2023-03-04T00:13:55;97054.28;;;0.89;86.32
14689;BME280;7432;48.728;9.154;2023-03-04T00:16:23;97051.97;;;0.85;87.07
14689;BME280;7432;48.728;9.154;2023-03-04T00:18:51;97056.97;;;0.86;86.86
14689;BME280;7432;48.728;9.154;2023-03-04T00:21:17;97049.44;;;0.85;86.39
14689;BME280;7432;48.728;9.154;2023-03-04T00:23:44;97055.44;;;0.84;86.56
14689;BME280;7432;48.728;9.154;2023-03-04T00:26:10;97050.28;;;0.85;87.15
14689;BME280;7432;48.728;9.154;2023-03-04T00:28:37;97036.50;;;0.75;87.03
14689;BME280;7432;48.728;9.154;2023-03-04T00:31:04;97050.00;;;0.76;87.20
14689;BME280;7432;48.728;9.154;2023-03-04T00:33:32;97047.91;;;0.68;87.03
14689;BME280;7432;48.728;9.154;2023-03-04T00:35:58;97032.53;;;0.55;88.09
14689;BME280;7432;48.728;9.154;2023-03-04T00:38:25;97045.69;;;0.62;87.91
14689;BME280;7432;48.728;9.154;2023-03-04T00:40:52;97050.13;;;0.58;87.64
14689;BME280;7432;48.728;9.154;2023-03-04T00:43:19;97046.13;;;0.54;88.37
14689;BME280;7432;48.728;9.154;2023-03-04T00:45:45;97053.72;;;0.54;87.93
14689;BME280;7432;48.728;9.154;2023-03-04T00:48:12;97038.69;;;0.51;88.71
14689;BME280;7432;48.728;9.154;2023-03-04T00:50:40;97048.91;;;0.50;88.89
14689;BME280;7432;48.728;9.154;2023-03-04T00:53:06;97046.13;;;0.54;88.59
14689;BME280;7432;48.728;9.154;2023-03-04T00:55:32;97048.84;;;0.51;88.29
14689;BME280;7432;48.728;9.154;2023-03-04T00:57:59;97023.72;;;0.33;87.98
14689;BME280;7432;48.728;9.154;2023-03-04T01:00:25;97052.00;;;0.55;88.24
14689;BME280;7432;48.728;9.154;2023-03-04T01:02:52;97049.38;;;0.56;88.41
14689;BME280;7432;48.728;9.154;2023-03-04T01:05:18;97039.75;;;0.47;88.98
14689;BME280;7432;48.728;9.154;2023-03-04T01:07:46;97040.03;;;0.43;88.47
14689;BME280;7432;48.728;9.154;2023-03-04T01:10:13;97038.38;;;0.42;88.42
14689;BME280;7432;48.728;9.154;2023-03-04T01:12:40;97037.31;;;0.46;88.87
14689;BME280;7432;48.728;9.154;2023-03-04T01:15:08;97038.38;;;0.42;88.68
14689;BME280;7432;48.728;9.154;2023-03-04T01:17:35;97042.56;;;0.43;88.62
14689;BME280;7432;48.728;9.154;2023-03-04T01:20:03;97031.88;;;0.38;88.78
14689;BME280;7432;48.728;9.154;2023-03-04T01:22:30;97032.50;;;0.41;89.02
14689;BME280;7432;48.728;9.154;2023-03-04T01:24:57;97033.16;;;0.45;88.98
14689;BME280;7432;48.728;9.154;2023-03-04T01:27:24;97027.59;;;0.38;88.93
14689;BME280;7432;48.728;9.154;2023-03-04T01:29:50;97026.38;;;0.45;88.35
14689;BME280;7432;48.728;9.154;2023-03-04T01:32:16;97027.59;;;0.38;89.14
14689;BME280;7432;48.728;9.154;2023-03-04T01:34:43;97031.31;;;0.33;89.11
14689;BME280;7432;48.728;9.154;2023-03-04T01:37:10;97025.03;;;0.24;89.37
14689;BME280;7432;48.728;9.154;2023-03-04T01:39:37;97020.69;;;0.26;89.49
14689;BME280;7432;48.728;9.154;2023-03-04T01:42:06;97025.19;;;0.21;89.41
14689;BME280;7432;48.728;9.154;2023-03-04T01:44:39;97025.59;;;0.29;89.58
14689;BME280;7432;48.728;9.154;2023-03-04T01:47:05;97018.88;;;0.28;89.06
14689;BME280;7432;48.728;9.154;2023-03-04T01:49:32;97022.66;;;0.21;89.45
14689;BME280;7432;48.728;9.154;2023-03-04T01:51:58;97025.25;;;0.20;89.25
14689;BME280;7432;48.728;9.154;2023-03-04T01:54:25;97018.75;;;0.16;89.53
14689;BME280;7432;48.728;9.154;2023-03-04T01:56:52;97018.34;;;0.08;89.77
14689;BME280;7432;48.728;9.154;2023-03-04T01:59:21;97028.06;;;0.15;90.03
14689;BME280;7432;48.728;9.154;2023-03-04T02:01:50;97019.31;;;0.21;89.13
14689;BME280;7432;48.728;9.154;2023-03-04T02:04:18;97014.31;;;0.19;89.61
14689;BME280;7432;48.728;9.154;2023-03-04T02:06:47;97017.81;;;0.17;89.65
14689;BME280;7432;48.728;9.154;2023-03-04T02:09:15;97014.19;;;0.07;89.68
14689;BME280;7432;48.728;9.154;2023-03-04T02:11:42;97020.88;;;0.08;90.75
14689;BME280;7432;48.728;9.154;2023-03-04T02:14:10;97014.66;;;0.13;90.18
14689;BME280;7432;48.728;9.154;2023-03-04T02:16:38;97006.91;;;0.16;90.04
14689;BME280;7432;48.728;9.154;2023-03-04T02:19:06;97008.34;;;0.20;89.93
14689;BME280;7432;48.728;9.154;2023-03-04T02:21:37;97001.59;;;0.21;89.44
14689;BME280;7432;48.728;9.154;2023-03-04T02:24:11;97005.94;;;0.19;89.98
14689;BME280;7432;48.728;9.154;2023-03-04T02:26:41;97012.03;;;0.15;89.43
14689;BME280;7432;48.728;9.154;2023-03-04T02:29:09;97006.25;;;0.13;90.01
14689;BME280;7432;48.728;9.154;2023-03-04T02:31:38;97006.50;;;0.08;90.04
14689;BME280;7432;48.728;9.154;2023-03-04T02:34:09;97006.59;;;0.07;90.54
14689;BME280;7432;48.728;9.154;2023-03-04T02:36:37;97016.53;;;0.10;90.35
14689;BME280;7432;48.728;9.154;2023-03-04T02:39:07;97003.06;;;0.09;90.04
14689;BME280;7432;48.728;9.154;2023-03-04T02:41:36;97010.09;;;0.04;90.33
14689;BME280;7432;48.728;9.154;2023-03-04T02:44:14;96993.03;;;-0.08;90.50
14689;BME280;7432;48.728;9.154;2023-03-04T02:46:41;97016.97;;;0.02;90.13
14689;BME280;7432;48.728;9.154;2023-03-04T02:49:08;97007.06;;;-0.03;90.39
14689;BME280;7432;48.728;9.154;2023-03-04T02:51:34;97004.53;;;-0.03;89.79
14689;BME280;7432;48.728;9.154;2023-03-04T02:54:00;97017.03;;;0.00;90.23
14689;BME280;7432;48.728;9.154;2023-03-04T02:56:27;97011.75;;;0.05;90.22
14689;BME280;7432;48.728;9.154;2023-03-04T02:58:53;97013.72;;;0.00;90.22
14689;BME280;7432;48.728;9.154;2023-03-04T03:01:21;97013.28;;;0.08;89.87
14689;BME280;7432;48.728;9.154;2023-03-04T03:03:47;97014.28;;;0.05;89.65
14689;BME280;7432;48.728;9.154;2023-03-04T03:06:14;97006.50;;;0.08;89.34
14689;BME280;7432;48.728;9.154;2023-03-04T03:08:40;97015.88;;;0.06;90.11
14689;BME280;7432;48.728;9.154;2023-03-04T03:11:06;97010.81;;;0.06;89.13
14689;BME280;7432;48.728;9.154;2023-03-04T03:13:33;97014.66;;;-0.03;89.45
14689;BME280;7432;48.728;9.154;2023-03-04T03:15:59;97013.06;;;-0.04;89.63
14689;BME280;7432;48.728;9.154;2023-03-04T03:18:30;97013.13;;;-0.05;89.31
14689;BME280;7432;48.728;9.154;2023-03-04T03:20:56;97001.38;;;-0.06;89.39
14689;BME280;7432;48.728;9.154;2023-03-04T03:23:22;97005.69;;;-0.08;89.37
14689;BME280;7432;48.728;9.154;2023-03-04T03:25:49;97009.03;;;-0.08;89.81
14689;BME280;7432;48.728;9.154;2023-03-04T03:28:15;97008.81;;;-0.03;89.73
14689;BME280;7432;48.728;9.154;2023-03-04T03:30:42;97008.56;;;0.02;89.35
14689;BME280;7432;48.728;9.154;2023-03-04T03:33:08;97010.59;;;0.11;89.18
14689;BME280;7432;48.728;9.154;2023-03-04T03:35:36;97016.53;;;0.10;88.89
14689;BME280;7432;48.728;9.154;2023-03-04T03:38:02;97010.91;;;0.05;89.12
14689;BME280;7432;48.728;9.154;2023-03-04T03:40:28;97011.00;;;0.03;89.29
14689;BME280;7432;48.728;9.154;2023-03-04T03:42:55;97016.25;;;0.00;89.50
14689;BME280;7432;48.728;9.154;2023-03-04T03:45:21;97017.94;;;-0.01;89.36
14689;BME280;7432;48.728;9.154;2023-03-04T03:47:48;97010.41;;;-0.02;89.43
14689;BME280;7432;48.728;9.154;2023-03-04T03:50:15;96988.16;;;-0.11;89.82
14689;BME280;7432;48.728;9.154;2023-03-04T03:52:42;97014.44;;;0.02;89.70
14689;BME280;7432;48.728;9.154;2023-03-04T03:55:09;97001.38;;;-0.06;89.65
14689;BME280;7432;48.728;9.154;2023-03-04T03:57:36;97000.38;;;0.12;89.31
14689;BME280;7432;48.728;9.154;2023-03-04T04:00:03;96986.66;;;0.00;88.76
14689;BME280;7432;48.728;9.154;2023-03-04T04:02:30;97006.31;;;0.11;89.07
14689;BME280;7432;48.728;9.154;2023-03-04T04:04:56;97007.06;;;0.13;88.91
14689;BME280;7432;48.728;9.154;2023-03-04T04:07:23;96996.16;;;-0.03;88.67
14689;BME280;7432;48.728;9.154;2023-03-04T04:09:50;97002.75;;;-0.01;88.87
14689;BME280;7432;48.728;9.154;2023-03-04T04:12:17;97006.59;;;-0.09;89.45
14689;BME280;7432;48.728;9.154;2023-03-04T04:14:44;97009.63;;;-0.18;89.52
14689;BME280;7432;48.728;9.154;2023-03-04T04:17:11;97010.91;;;-0.27;89.66
14689;BME280;7432;48.728;9.154;2023-03-04T04:19:38;97005.28;;;-0.16;89.80
14689;BME280;7432;48.728;9.154;2023-03-04T04:22:05;97003.25;;;-0.10;90.05
14689;BME280;7432;48.728;9.154;2023-03-04T04:24:31;97011.66;;;-0.09;89.74
14689;BME280;7432;48.728;9.154;2023-03-04T04:26:59;97007.25;;;-0.21;89.53
14689;BME280;7432;48.728;9.154;2023-03-04T04:29:26;97002.50;;;-0.27;89.83
14689;BME280;7432;48.728;9.154;2023-03-04T04:31:52;97007.56;;;-0.43;90.19
14689;BME280;7432;48.728;9.154;2023-03-04T04:34:18;97017.84;;;-0.46;90.74
14689;BME280;7432;48.728;9.154;2023-03-04T04:36:45;97017.09;;;-0.48;90.52
14689;BME280;7432;48.728;9.154;2023-03-04T04:39:11;97004.47;;;-0.48;90.65
14689;BME280;7432;48.728;9.154;2023-03-04T04:41:40;97007.97;;;-0.50;90.53
14689;BME280;7432;48.728;9.154;2023-03-04T04:44:09;97008.28;;;-0.56;90.57
14689;BME280;7432;48.728;9.154;2023-03-04T04:46:36;97010.66;;;-0.53;90.92
14689;BME280;7432;48.728;9.154;2023-03-04T04:49:03;97007.81;;;-0.63;90.86
14689;BME280;7432;48.728;9.154;2023-03-04T04:51:29;97012.19;;;-0.67;90.85
14689;BME280;7432;48.728;9.154;2023-03-04T04:53:56;97022.97;;;-0.63;90.68
14689;BME280;7432;48.728;9.154;2023-03-04T04:56:24;97016.34;;;-0.66;90.95
14689;BME280;7432;48.728;9.154;2023-03-04T04:58:51;97020.94;;;-0.56;90.98
14689;BME280;7432;48.728;9.154;2023-03-04T05:01:20;97015.72;;;-0.53;90.90
14689;BME280;7432;48.728;9.154;2023-03-04T05:03:46;97016.44;;;-0.51;90.68
14689;BME280;7432;48.728;9.154;2023-03-04T05:06:14;97018.56;;;-0.60;90.67
14689;BME280;7432;48.728;9.154;2023-03-04T05:08:40;97022.00;;;-0.45;90.86
14689;BME280;7432;48.728;9.154;2023-03-04T05:11:07;97020.94;;;-0.41;90.69
14689;BME280;7432;48.728;9.154;2023-03-04T05:13:34;97013.59;;;-0.45;90.66
14689;BME280;7432;48.728;9.154;2023-03-04T05:16:00;97009.22;;;-0.42;90.82
14689;BME280;7432;48.728;9.154;2023-03-04T05:18:28;97012.72;;;-0.44;90.78
14689;BME280;7432;48.728;9.154;2023-03-04T05:20:56;97014.69;;;-0.49;91.05
14689;BME280;7432;48.728;9.154;2023-03-04T05:23:24;97024.69;;;-0.48;91.32
14689;BME280;7432;48.728;9.154;2023-03-04T05:25:51;97022.16;;;-0.48;90.51
14689;BME280;7432;48.728;9.154;2023-03-04T05:28:17;97026.66;;;-0.53;90.78
14689;BME280;7432;48.728;9.154;2023-03-04T05:30:45;97026.22;;;-0.61;91.20
14689;BME280;7432;48.728;9.154;2023-03-04T05:33:13;97028.81;;;-0.63;91.08
14689;BME280;7432;48.728;9.154;2023-03-04T05:35:42;97027.28;;;-0.65;91.18
14689;BME280;7432;48.728;9.154;2023-03-04T05:38:10;97024.31;;;-0.73;91.39
14689;BME280;7432;48.728;9.154;2023-03-04T05:40:37;97028.25;;;-0.68;91.25
14689;BME280;7432;48.728;9.154;2023-03-04T05:43:04;97013.06;;;-0.83;91.17
14689;BME280;7432;48.728;9.154;2023-03-04T05:45:31;97023.91;;;-0.81;91.76
14689;BME280;7432;48.728;9.154;2023-03-04T05:47:58;97024.72;;;-0.81;91.70
14689;BME280;7432;48.728;9.154;2023-03-04T05:50:25;97022.03;;;-0.78;91.39
14689;BME280;7432;48.728;9.154;2023-03-04T05:52:53;97031.72;;;-0.86;91.23
14689;BME280;7432;48.728;9.154;2023-03-04T05:55:19;97030.16;;;-0.88;91.86
14689;BME280;7432;48.728;9.154;2023-03-04T05:57:46;97029.34;;;-0.89;92.23
14689;BME280;7432;48.728;9.154;2023-03-04T06:00:13;97034.09;;;-0.83;92.13
14689;BME280;7432;48.728;9.154;2023-03-04T06:02:41;97040.84;;;-0.83;92.26
14689;BME280;7432;48.728;9.154;2023-03-04T06:05:09;97026.28;;;-0.95;92.09
14689;BME280;7432;48.728;9.154;2023-03-04T06:07:35;97033.28;;;-0.83;92.28
14689;BME280;7432;48.728;9.154;2023-03-04T06:10:04;97043.97;;;-0.78;91.72
14689;BME280;7432;48.728;9.154;2023-03-04T06:12:30;97040.03;;;-0.84;92.13
14689;BME280;7432;48.728;9.154;2023-03-04T06:14:57;97044.22;;;-0.83;92.36
14689;BME280;7432;48.728;9.154;2023-03-04T06:17:23;97044.50;;;-0.89;92.49
14689;BME280;7432;48.728;9.154;2023-03-04T06:19:49;97041.69;;;-0.83;92.33
14689;BME280;7432;48.728;9.154;2023-03-04T06:22:16;97043.22;;;-0.80;91.87
14689;BME280;7432;48.728;9.154;2023-03-04T06:24:42;97054.66;;;-0.73;91.61
14689;BME280;7432;48.728;9.154;2023-03-04T06:27:11;97058.59;;;-0.68;91.48
14689;BME280;7432;48.728;9.154;2023-03-04T06:29:37;97061.53;;;-0.60;91.45
14689;BME280;7432;48.728;9.154;2023-03-04T06:32:04;97057.16;;;-0.56;91.31
14689;BME280;7432;48.728;9.154;2023-03-04T06:34:30;97065.31;;;-0.51;90.91
14689;BME280;7432;48.728;9.154;2023-03-04T06:36:57;97068.13;;;-0.40;90.89
14689;BME280;7432;48.728;9.154;2023-03-04T06:39:24;97076.69;;;-0.27;90.53
14689;BME280;7432;48.728;9.154;2023-03-04T06:41:50;97082.69;;;-0.12;89.99
14689;BME280;7432;48.728;9.154;2023-03-04T06:44:18;97083.00;;;-0.03;89.62
14689;BME280;7432;48.728;9.154;2023-03-04T06:46:44;97080.56;;;0.12;89.32
14689;BME280;7432;48.728;9.154;2023-03-04T06:49:11;97081.97;;;0.33;88.40
14689;BME280;7432;48.728;9.154;2023-03-04T06:51:37;97081.75;;;0.51;87.44
14689;BME280;7432;48.728;9.154;2023-03-04T06:54:03;97088.34;;;0.70;86.50
14689;BME280;7432;48.728;9.154;2023-03-04T06:56:30;97084.16;;;0.84;84.95
14689;BME280;7432;48.728;9.154;2023-03-04T06:58:57;97090.50;;;0.91;85.46
14689;BME280;7432;48.728;9.154;2023-03-04T07:01:26;97093.34;;;1.01;84.73
14689;BME280;7432;48.728;9.154;2023-03-04T07:03:54;97093.78;;;1.07;85.00
14689;BME280;7432;48.728;9.154;2023-03-04T07:06:22;97095.81;;;1.16;83.11
14689;BME280;7432;48.728;9.154;2023-03-04T07:08:50;97101.97;;;1.27;83.14
14689;BME280;7432;48.728;9.154;2023-03-04T07:11:18;97111.13;;;1.29;83.10
14689;BME280;7432;48.728;9.154;2023-03-04T07:13:46;97098.88;;;1.22;83.31
14689;BME280;7432;48.728;9.154;2023-03-04T07:16:14;97100.53;;;1.23;83.57
14689;BME280;7432;48.728;9.154;2023-03-04T07:18:43;97105.44;;;1.26;83.89
14689;BME280;7432;48.728;9.154;2023-03-04T07:21:09;97090.28;;;1.24;83.16
14689;BME280;7432;48.728;9.154;2023-03-04T07:23:36;97104.84;;;1.20;83.82
14689;BME280;7432;48.728;9.154;2023-03-04T07:26:03;97106.44;;;1.37;82.88
14689;BME280;7432;48.728;9.154;2023-03-04T07:28:30;97097.19;;;1.22;83.36
14689;BME280;7432;48.728;9.154;2023-03-04T07:30:56;97119.22;;;1.50;83.15
14689;BME280;7432;48.728;9.154;2023-03-04T07:33:22;97120.03;;;1.64;82.39
14689;BME280;7432;48.728;9.154;2023-03-04T07:35:58;97123.75;;;1.45;82.44
14689;BME280;7432;48.728;9.154;2023-03-04T07:38:25;97122.47;;;1.38;81.75
14689;BME280;7432;48.728;9.154;2023-03-04T07:40:54;97118.53;;;1.18;83.14
14689;BME280;7432;48.728;9.154;2023-03-04T07:43:20;97120.81;;;1.37;82.67
14689;BME280;7432;48.728;9.154;2023-03-04T07:45:47;97124.56;;;1.45;83.52
14689;BME280;7432;48.728;9.154;2023-03-04T07:48:13;97115.88;;;1.49;83.18
14689;BME280;7432;48.728;9.154;2023-03-04T07:50:39;97123.22;;;1.54;82.61
14689;BME280;7432;48.728;9.154;2023-03-04T07:53:07;97129.00;;;1.70;83.36
14689;BME280;7432;48.728;9.154;2023-03-04T07:55:33;97130.09;;;1.52;81.65
14689;BME280;7432;48.728;9.154;2023-03-04T07:58:00;97135.72;;;1.57;81.83
14689;BME280;7432;48.728;9.154;2023-03-04T08:00:27;97129.81;;;1.28;83.10
14689;BME280;7432;48.728;9.154;2023-03-04T08:02:53;97144.84;;;1.01;83.62
14689;BME280;7432;48.728;9.154;2023-03-04T08:05:20;97138.72;;;1.05;83.69
14689;BME280;7432;48.728;9.154;2023-03-04T08:07:46;97146.19;;;1.23;84.00
14689;BME280;7432;48.728;9.154;2023-03-04T08:10:14;97143.69;;;1.07;83.37
14689;BME280;7432;48.728;9.154;2023-03-04T08:12:40;97146.97;;;1.09;83.70
14689;BME280;7432;48.728;9.154;2023-03-04T08:15:07;97149.34;;;0.96;83.66
14689;BME280;7432;48.728;9.154;2023-03-04T08:17:34;97145.28;;;0.94;84.05
14689;BME280;7432;48.728;9.154;2023-03-04T08:20:01;97153.25;;;1.02;84.84
14689;BME280;7432;48.728;9.154;2023-03-04T08:22:27;97147.03;;;1.07;85.45
14689;BME280;7432;48.728;9.154;2023-03-04T08:24:53;97151.44;;;1.04;84.00
14689;BME280;7432;48.728;9.154;2023-03-04T08:27:21;97146.97;;;1.09;84.19
14689;BME280;7432;48.728;9.154;2023-03-04T08:29:47;97156.66;;;1.16;84.29
14689;BME280;7432;48.728;9.154;2023-03-04T08:32:14;97160.75;;;1.19;84.76
14689;BME280;7432;48.728;9.154;2023-03-04T08:34:40;97158.03;;;1.22;84.79
14689;BME280;7432;48.728;9.154;2023-03-04T08:37:06;97168.22;;;1.36;83.56
14689;BME280;7432;48.728;9.154;2023-03-04T08:39:33;97163.53;;;1.44;84.81
14689;BME280;7432;48.728;9.154;2023-03-04T08:42:00;97166.91;;;1.45;83.43
14689;BME280;7432;48.728;9.154;2023-03-04T08:44:28;97163.09;;;1.52;82.81
14689;BME280;7432;48.728;9.154;2023-03-04T08:46:55;97172.41;;;1.51;82.95
14689;BME280;7432;48.728;9.154;2023-03-04T08:49:21;97171.84;;;1.32;82.66
14689;BME280;7432;48.728;9.154;2023-03-04T08:51:48;97168.22;;;1.36;83.80
14689;BME280;7432;48.728;9.154;2023-03-04T08:54:14;97170.84;;;1.35;83.76
14689;BME280;7432;48.728;9.154;2023-03-04T08:56:41;97169.22;;;1.34;83.29
14689;BME280;7432;48.728;9.154;2023-03-04T08:59:07;97167.31;;;1.37;83.89
14689;BME280;7432;48.728;9.154;2023-03-04T09:01:35;97171.16;;;1.44;83.38
14689;BME280;7432;48.728;9.154;2023-03-04T09:04:01;97176.78;;;1.49;83.13
14689;BME280;7432;48.728;9.154;2023-03-04T09:06:28;97168.81;;;1.55;83.49
14689;BME280;7432;48.728;9.154;2023-03-04T09:08:54;97173.72;;;1.58;83.80
14689;BME280;7432;48.728;9.154;2023-03-04T09:11:21;97176.25;;;1.58;82.14
14689;BME280;7432;48.728;9.154;2023-03-04T09:13:47;97178.06;;;1.70;82.89
14689;BME280;7432;48.728;9.154;2023-03-04T09:16:15;97177.63;;;1.64;83.00
14689;BME280;7432;48.728;9.154;2023-03-04T09:18:43;97185.59;;;1.72;82.84
14689;BME280;7432;48.728;9.154;2023-03-04T09:21:09;97183.84;;;1.44;82.65
14689;BME280;7432;48.728;9.154;2023-03-04T09:23:36;97184.56;;;1.46;81.67
14689;BME280;7432;48.728;9.154;2023-03-04T09:26:13;97197.13;;;1.48;82.69
14689;BME280;7432;48.728;9.154;2023-03-04T09:28:40;97188.75;;;1.47;82.48
14689;BME280;7432;48.728;9.154;2023-03-04T09:31:10;97185.81;;;1.53;82.16
14689;BME280;7432;48.728;9.154;2023-03-04T09:33:37;97183.66;;;1.61;82.17
14689;BME280;7432;48.728;9.154;2023-03-04T09:36:08;97181.97;;;1.76;82.48
14689;BME280;7432;48.728;9.154;2023-03-04T09:38:34;97187.53;;;1.97;81.43
14689;BME280;7432;48.728;9.154;2023-03-04T09:41:06;97182.88;;;2.03;81.40
14689;BME280;7432;48.728;9.154;2023-03-04T09:43:34;97188.25;;;2.13;79.61
14689;BME280;7432;48.728;9.154;2023-03-04T09:46:05;97187.97;;;2.17;77.94
14689;BME280;7432;48.728;9.154;2023-03-04T09:48:39;97178.44;;;2.07;79.10
14689;BME280;7432;48.728;9.154;2023-03-04T09:51:22;97186.31;;;2.16;79.78
14689;BME280;7432;48.728;9.154;2023-03-04T09:54:07;97176.81;;;2.20;79.10
14689;BME280;7432;48.728;9.154;2023-03-04T09:56:37;97180.06;;;2.36;77.72
14689;BME280;7432;48.728;9.154;2023-03-04T09:59:11;97185.78;;;2.25;78.03
14689;BME280;7432;48.728;9.154;2023-03-04T10:01:45;97181.22;;;2.45;77.97
14689;BME280;7432;48.728;9.154;2023-03-04T10:04:17;97188.66;;;2.62;75.15
14689;BME280;7432;48.728;9.154;2023-03-04T10:06:49;97188.66;;;2.62;75.15
14689;BME280;7432;48.728;9.154;2023-03-04T10:09:21;97184.31;;;2.76;75.50
14689;BME280;7432;48.728;9.154;2023-03-04T10:11:56;97178.19;;;2.93;75.22
14689;BME280;7432;48.728;9.154;2023-03-04T10:14:32;97185.25;;;3.02;73.62
14689;BME280;7432;48.728;9.154;2023-03-04T10:17:06;97163.69;;;3.08;73.13
14689;BME280;7432;48.728;9.154;2023-03-04T10:19:42;97180.94;;;3.29;73.17
14689;BME280;7432;48.728;9.154;2023-03-04T10:22:19;97176.72;;;3.55;71.77
14689;BME280;7432;48.728;9.154;2023-03-04T10:24:47;97176.31;;;3.74;70.01
14689;BME280;7432;48.728;9.154;2023-03-04T10:27:16;97177.97;;;3.87;69.29
14689;BME280;7432;48.728;9.154;2023-03-04T10:29:44;97173.97;;;3.71;67.97
14689;BME280;7432;48.728;9.154;2023-03-04T10:32:12;97169.78;;;3.70;69.21
14689;BME280;7432;48.728;9.154;2023-03-04T10:34:41;97172.13;;;3.73;67.99
14689;BME280;7432;48.728;9.154;2023-03-04T10:37:08;97170.84;;;3.80;67.32
14689;BME280;7432;48.728;9.154;2023-03-04T10:39:38;97141.66;;;3.96;67.44
14689;BME280;7432;48.728;9.154;2023-03-04T10:42:08;97168.19;;;4.43;67.09
14689;BME280;7432;48.728;9.154;2023-03-04T10:44:51;97178.59;;;4.76;66.20
14689;BME280;7432;48.728;9.154;2023-03-04T10:47:17;97173.06;;;4.58;64.44
14689;BME280;7432;48.728;9.154;2023-03-04T10:49:52;97166.47;;;4.43;65.20
14689;BME280;7432;48.728;9.154;2023-03-04T10:52:26;97166.03;;;4.00;66.80
14689;BME280;7432;48.728;9.154;2023-03-04T10:54:56;97165.63;;;4.06;66.92
14689;BME280;7432;48.728;9.154;2023-03-04T10:57:28;97161.00;;;4.24;66.44
14689;BME280;7432;48.728;9.154;2023-03-04T10:59:59;97163.75;;;4.34;66.25
14689;BME280;7432;48.728;9.154;2023-03-04T11:02:26;97154.66;;;4.42;65.51
14689;BME280;7432;48.728;9.154;2023-03-04T11:04:56;97149.28;;;4.58;65.51
14689;BME280;7432;48.728;9.154;2023-03-04T11:07:30;97156.91;;;4.22;64.96
14689;BME280;7432;48.728;9.154;2023-03-04T11:10:08;97157.84;;;4.21;66.19
14689;BME280;7432;48.728;9.154;2023-03-04T11:12:34;97150.94;;;4.46;65.87
14689;BME280;7432;48.728;9.154;2023-03-04T11:15:02;97145.78;;;4.35;64.96
14689;BME280;7432;48.728;9.154;2023-03-04T11:17:40;97151.28;;;4.42;65.36
14689;BME280;7432;48.728;9.154;2023-03-04T11:20:13;97138.75;;;4.39;64.88
14689;BME280;7432;48.728;9.154;2023-03-04T11:22:44;97142.34;;;4.60;64.72
14689;BME280;7432;48.728;9.154;2023-03-04T11:25:22;97137.44;;;4.69;64.63
14689;BME280;7432;48.728;9.154;2023-03-04T11:27:52;97136.34;;;4.61;63.74
14689;BME280;7432;48.728;9.154;2023-03-04T11:30:28;97133.38;;;4.54;64.08
14689;BME280;7432;48.728;9.154;2023-03-04T11:33:04;97131.09;;;4.39;64.60
14689;BME280;7432;48.728;9.154;2023-03-04T11:35:38;97133.66;;;4.39;64.31
14689;BME280;7432;48.728;9.154;2023-03-04T11:38:15;97126.91;;;4.38;64.98
14689;BME280;7432;48.728;9.154;2023-03-04T11:40:49;97133.16;;;4.34;64.14
14689;BME280;7432;48.728;9.154;2023-03-04T11:43:21;97135.28;;;4.40;64.45
14689;BME280;7432;48.728;9.154;2023-03-04T11:46:04;97126.53;;;4.31;65.01
14689;BME280;7432;48.728;9.154;2023-03-04T11:48:44;97127.16;;;4.22;65.22
14689;BME280;7432;48.728;9.154;2023-03-04T11:51:19;97121.59;;;4.41;64.46
14689;BME280;7432;48.728;9.154;2023-03-04T11:53:56;97125.84;;;4.53;63.71
14689;BME280;7432;48.728;9.154;2023-03-04T11:56:30;97103.38;;;4.34;63.83
14689;BME280;7432;48.728;9.154;2023-03-04T12:02:04;97104.16;;;4.35;63.64
14689;BME280;7432;48.728;9.154;2023-03-04T12:07:45;97103.97;;;4.38;63.63
14689;BME280;7432;48.728;9.154;2023-03-04T12:10:22;97108.09;;;4.51;63.46
14689;BME280;7432;48.728;9.154;2023-03-04T12:13:15;97097.47;;;4.57;63.85
14689;BME280;7432;48.728;9.154;2023-03-04T12:15:48;97097.41;;;4.70;63.67
14689;BME280;7432;48.728;9.154;2023-03-04T12:18:33;97092.09;;;4.73;63.50
14689;BME280;7432;48.728;9.154;2023-03-04T12:21:12;97086.47;;;4.81;62.87
14689;BME280;7432;48.728;9.154;2023-03-04T12:24:09;97073.88;;;4.66;63.47
14689;BME280;7432;48.728;9.154;2023-03-04T12:26:44;97078.22;;;4.77;63.22
14689;BME280;7432;48.728;9.154;2023-03-04T12:29:21;97078.00;;;4.80;63.51
14689;BME280;7432;48.728;9.154;2023-03-04T12:31:58;97075.53;;;4.78;62.99
14689;BME280;7432;48.728;9.154;2023-03-04T12:34:32;97072.56;;;4.61;63.06
14689;BME280;7432;48.728;9.154;2023-03-04T12:37:19;97066.47;;;4.51;63.71
14689;BME280;7432;48.728;9.154;2023-03-04T12:40:22;97070.06;;;4.72;62.88
14689;BME280;7432;48.728;9.154;2023-03-04T12:43:00;97056.53;;;4.48;62.73
14689;BME280;7432;48.728;9.154;2023-03-04T12:45:38;97055.63;;;4.60;63.48
14689;BME280;7432;48.728;9.154;2023-03-04T12:48:16;97042.84;;;4.49;62.96
14689;BME280;7432;48.728;9.154;2023-03-04T12:50:54;97050.97;;;4.54;62.69
14689;BME280;7432;48.728;9.154;2023-03-04T12:53:29;97047.44;;;4.44;62.48
14689;BME280;7432;48.728;9.154;2023-03-04T12:55:58;97055.16;;;4.55;63.09
14689;BME280;7432;48.728;9.154;2023-03-04T12:58:26;97051.16;;;4.40;63.20
14689;BME280;7432;48.728;9.154;2023-03-04T13:01:03;97039.63;;;4.10;63.89
14689;BME280;7432;48.728;9.154;2023-03-04T13:03:37;97048.44;;;3.94;63.77
14689;BME280;7432;48.728;9.154;2023-03-04T13:06:13;97046.56;;;4.08;64.64
14689;BME280;7432;48.728;9.154;2023-03-04T13:08:52;97046.78;;;4.29;63.86
14689;BME280;7432;48.728;9.154;2023-03-04T13:11:38;97045.06;;;4.30;64.18
14689;BME280;7432;48.728;9.154;2023-03-04T13:14:06;97043.31;;;4.54;63.34
14689;BME280;7432;48.728;9.154;2023-03-04T13:16:38;97044.09;;;4.67;62.47
14689;BME280;7432;48.728;9.154;2023-03-04T13:22:27;97039.16;;;4.88;62.20
14689;BME280;7432;48.728;9.154;2023-03-04T13:24:55;97037.09;;;4.58;62.79
14689;BME280;7432;48.728;9.154;2023-03-04T13:27:43;97030.13;;;4.60;63.27
14689;BME280;7432;48.728;9.154;2023-03-04T13:30:38;97033.66;;;4.46;63.25
14689;BME280;7432;48.728;9.154;2023-03-04T13:33:43;97034.59;;;4.45;64.03
14689;BME280;7432;48.728;9.154;2023-03-04T13:39:31;97028.38;;;4.26;64.48
14689;BME280;7432;48.728;9.154;2023-03-04T13:41:58;97036.97;;;4.36;64.71
14689;BME280;7432;48.728;9.154;2023-03-04T13:44:34;97034.16;;;4.51;65.10